Terminal Aerodrome Forecast
Issued by NWS Wilmington, NC

Home | Current Version | Previous Version | Text Only | Print | Product List | Glossary On
Versions: 1 2 3 4 5 6 7 8 9 10 11 12 13 14 15
000
FTUS42 KILM 271700
TAFILM
TAF
KILM 271720Z 2718/2818 15006KT P6SM SCT250
     FM272330 00000KT P6SM BKN250
     FM280900 00000KT 4SM BR SCT050 BKN150
     FM281330 22004KT P6SM VCSH SCT035 BKN120=

USA.gov is the U.S. government's official web portal to all federal, state and local government web resources and services.